Time;durP1;ratioP1;P1;durP2;ratioP2;P2;SDS_P1;SDS_P2;PMS_P1;PMS_P2;Temp;Humidity;BMP_temperature;BMP_pressure;BME280_temperature;BME280_humidity;BME280_pressure;Samples;Min_cycle;Max_cycle;Signal;HPM_P1;HPM_P2
2023/01/01 00:01:43;;;;;;;7.35;4.43;;;20.10;66.90;;;;;;4523083;31;20082;-67
2023/01/01 00:04:14;;;;;;;9.23;5.45;;;20.10;66.90;;;;;;4523350;31;20222;-66
2023/01/01 00:06:41;;;;;;;10.25;4.80;;;20.00;67.70;;;;;;4522728;31;20147;-67
2023/01/01 00:11:52;;;;;;;8.35;5.10;;;20.00;67.00;;;;;;4520998;31;20068;-67
2023/01/01 00:14:18;;;;;;;9.93;5.68;;;20.00;67.00;;;;;;4519792;31;20095;-66
2023/01/01 00:16:44;;;;;;;8.82;4.95;;;20.00;67.00;;;;;;4521530;31;20065;-67
2023/01/01 00:19:10;;;;;;;8.63;5.10;;;19.90;66.90;;;;;;4521039;31;20120;-67
2023/01/01 00:21:36;;;;;;;10.30;5.65;;;19.90;66.90;;;;;;4517364;31;20139;-67
2023/01/01 00:24:02;;;;;;;10.25;6.00;;;19.90;66.90;;;;;;4509608;31;20061;-66
2023/01/01 00:26:32;;;;;;;10.50;5.68;;;19.90;66.80;;;;;;4511108;31;20119;-66
2023/01/01 00:28:58;;;;;;;13.63;6.47;;;19.80;66.80;;;;;;4520651;31;20072;-67
2023/01/01 00:31:24;;;;;;;10.05;6.28;;;19.80;66.90;;;;;;4518993;31;20084;-67
2023/01/01 00:33:52;;;;;;;8.40;5.68;;;19.80;66.90;;;;;;4520919;31;20167;-67
2023/01/01 00:36:20;;;;;;;12.32;6.80;;;19.80;66.80;;;;;;4522222;31;20065;-66
2023/01/01 00:38:47;;;;;;;11.40;6.43;;;19.80;66.80;;;;;;4525008;31;20108;-66
2023/01/01 00:41:14;;;;;;;10.75;6.53;;;19.70;66.70;;;;;;4510018;31;20188;-67
2023/01/01 00:43:41;;;;;;;11.48;6.43;;;19.70;66.70;;;;;;4521606;31;20134;-67
2023/01/01 00:46:07;;;;;;;12.40;6.80;;;19.70;66.80;;;;;;4523484;31;20518;-66
2023/01/01 00:48:34;;;;;;;9.45;6.47;;;19.70;66.70;;;;;;4522042;31;20083;-67
2023/01/01 00:51:01;;;;;;;10.23;6.50;;;19.70;66.80;;;;;;4524052;31;20168;-66
2023/01/01 00:53:33;;;;;;;11.20;6.40;;;19.70;66.70;;;;;;4523974;31;20092;-67
2023/01/01 00:55:58;;;;;;;12.73;7.28;;;19.70;66.70;;;;;;4523787;31;20409;-67
2023/01/01 00:58:25;;;;;;;11.02;6.57;;;19.60;66.60;;;;;;4523286;31;20205;-67
2023/01/01 01:00:52;;;;;;;10.80;6.88;;;19.60;66.60;;;;;;4522581;31;20139;-67
2023/01/01 01:03:27;;;;;;;10.65;6.47;;;19.60;66.60;;;;;;4524068;31;20513;-67
2023/01/01 01:06:08;;;;;;;11.57;6.85;;;19.60;66.60;;;;;;4523918;31;20064;-67
2023/01/01 01:08:37;;;;;;;13.07;6.95;;;19.60;66.50;;;;;;4524816;31;20094;-67
2023/01/01 01:11:15;;;;;;;9.27;6.88;;;19.60;66.60;;;;;;4520702;31;20219;-67
2023/01/01 01:13:43;;;;;;;10.70;7.15;;;19.60;66.60;;;;;;4523204;31;20084;-66
2023/01/01 01:16:13;;;;;;;8.38;6.75;;;19.50;66.60;;;;;;4507704;31;20076;-66
2023/01/01 01:18:40;;;;;;;11.75;6.55;;;19.50;66.60;;;;;;4524700;31;20135;-66
2023/01/01 01:21:07;;;;;;;9.85;6.90;;;19.50;66.50;;;;;;4523245;31;20091;-66
2023/01/01 01:23:33;;;;;;;11.98;7.28;;;19.50;66.50;;;;;;4524507;31;20073;-66
2023/01/01 01:26:30;;;;;;;11.20;6.80;;;19.50;66.50;;;;;;4523648;31;20157;-66
2023/01/01 01:28:56;;;;;;;11.48;7.00;;;19.50;66.40;;;;;;4516471;31;20123;-66
2023/01/01 01:31:25;;;;;;;11.02;6.95;;;19.50;66.50;;;;;;4521554;31;20639;-67
2023/01/01 01:33:51;;;;;;;9.73;6.40;;;19.50;66.40;;;;;;4516434;31;20100;-67
2023/01/01 01:36:18;;;;;;;9.88;6.80;;;19.50;66.40;;;;;;4522991;31;20075;-66
2023/01/01 01:38:45;;;;;;;12.63;6.90;;;19.50;66.30;;;;;;4524591;31;20084;-67
2023/01/01 01:41:18;;;;;;;10.23;6.70;;;19.50;66.30;;;;;;4523700;31;20080;-67
2023/01/01 01:43:50;;;;;;;10.65;7.47;;;19.50;66.40;;;;;;4525171;31;20092;-66
2023/01/01 01:46:21;;;;;;;10.18;7.10;;;19.50;66.40;;;;;;4510771;31;20386;-67
2023/01/01 01:48:50;;;;;;;9.95;6.95;;;19.50;66.40;;;;;;4523139;31;20095;-67
2023/01/01 01:51:25;;;;;;;11.25;7.10;;;19.50;66.40;;;;;;4524198;31;20519;-66
2023/01/01 01:53:56;;;;;;;11.45;6.70;;;19.50;66.40;;;;;;4523547;31;20116;-66
2023/01/01 01:56:44;;;;;;;11.40;7.30;;;19.50;66.40;;;;;;4525552;31;20092;-66
2023/01/01 01:59:10;;;;;;;9.98;7.25;;;19.50;66.40;;;;;;4525196;31;20234;-66
2023/01/01 02:01:39;;;;;;;11.35;7.47;;;19.40;66.40;;;;;;4525107;31;20161;-66
2023/01/01 02:04:05;;;;;;;10.10;7.30;;;19.40;66.30;;;;;;4525183;31;20155;-66
2023/01/01 02:06:32;;;;;;;13.35;7.15;;;19.40;66.30;;;;;;4525286;31;20155;-66
2023/01/01 02:09:01;;;;;;;12.65;7.38;;;19.40;66.30;;;;;;4524959;31;20384;-66
2023/01/01 02:11:30;;;;;;;11.93;7.90;;;19.40;66.30;;;;;;4525351;31;20119;-66
2023/01/01 02:13:58;;;;;;;11.80;7.30;;;19.40;66.10;;;;;;4525153;31;20213;-67
2023/01/01 02:16:41;;;;;;;10.13;7.15;;;19.40;66.20;;;;;;4525023;31;20090;-66
2023/01/01 02:19:14;;;;;;;13.37;7.50;;;19.40;66.10;;;;;;4524955;31;20069;-66
2023/01/01 02:21:59;;;;;;;13.73;7.75;;;19.40;66.10;;;;;;4525084;31;20112;-66
2023/01/01 02:24:51;;;;;;;9.27;7.00;;;19.40;66.10;;;;;;4524701;31;20227;-66
2023/01/01 02:27:27;;;;;;;12.50;7.40;;;19.30;66.10;;;;;;4524770;31;20152;-66
2023/01/01 02:30:02;;;;;;;10.25;7.20;;;19.40;66.30;;;;;;4524646;31;20400;-66
2023/01/01 02:32:53;;;;;;;10.25;7.50;;;19.30;66.30;;;;;;4524996;31;20078;-66
2023/01/01 02:35:34;;;;;;;12.30;7.57;;;19.40;66.10;;;;;;4515073;31;20073;-66
2023/01/01 02:38:30;;;;;;;10.80;7.32;;;19.30;66.20;;;;;;4524673;31;20127;-66
2023/01/01 02:41:34;;;;;;;11.00;7.88;;;19.30;66.20;;;;;;4513264;31;20139;-66
2023/01/01 02:44:02;;;;;;;11.82;7.55;;;19.30;66.30;;;;;;4514250;31;20091;-66
2023/01/01 02:46:33;;;;;;;11.73;7.53;;;19.30;66.30;;;;;;4524459;31;20076;-66
2023/01/01 02:49:00;;;;;;;11.07;7.88;;;19.30;66.30;;;;;;4524434;31;20076;-66
2023/01/01 02:51:44;;;;;;;10.35;7.65;;;19.30;66.40;;;;;;4524307;31;20505;-66
2023/01/01 02:54:24;;;;;;;;;;;19.30;66.30;;;;;;4525269;31;20502;-66
2023/01/01 02:57:13;;;;;;;12.10;7.43;;;19.30;66.20;;;;;;4524258;31;20125;-66
2023/01/01 03:03:15;;;;;;;10.52;7.30;;;19.20;66.30;;;;;;4524170;31;20076;-66
2023/01/01 03:09:02;;;;;;;10.68;7.28;;;19.20;66.40;;;;;;4524201;31;20123;-66
2023/01/01 03:11:45;;;;;;;11.13;8.27;;;19.20;66.40;;;;;;4514505;31;20072;-66
2023/01/01 03:14:19;;;;;;;12.70;8.18;;;19.20;66.60;;;;;;4509705;31;20080;-66
2023/01/01 03:16:50;;;;;;;12.60;7.73;;;19.20;66.60;;;;;;4524392;31;20065;-66
2023/01/01 03:19:22;;;;;;;10.27;6.95;;;19.20;66.60;;;;;;4523955;31;20217;-66
2023/01/01 03:22:06;;;;;;;10.93;7.40;;;19.20;66.60;;;;;;4524025;31;20090;-66
2023/01/01 03:24:55;;;;;;;10.25;7.25;;;19.20;66.60;;;;;;4523814;31;20088;-66
2023/01/01 03:27:26;;;;;;;10.23;7.85;;;19.20;66.70;;;;;;4523594;31;20127;-66
2023/01/01 03:29:55;;;;;;;9.48;7.28;;;19.10;66.60;;;;;;4523618;31;20189;-65
2023/01/01 03:32:59;;;;;;;10.88;8.07;;;19.10;66.60;;;;;;4523126;31;20136;-66
2023/01/01 03:35:14;;;;;;;14.45;8.18;;;19.10;66.60;;;;;;4508977;31;20072;-66
2023/01/01 03:37:43;;;;;;;8.95;7.22;;;19.10;66.60;;;;;;4520404;31;20079;-66
2023/01/01 03:40:11;;;;;;;13.05;7.32;;;19.10;66.60;;;;;;4517281;31;20284;-66
2023/01/01 03:42:43;;;;;;;10.00;7.47;;;19.10;66.60;;;;;;4517308;31;20106;-66
2023/01/01 03:45:16;;;;;;;10.07;7.30;;;19.10;66.60;;;;;;4522285;31;20160;-66
2023/01/01 03:47:42;;;;;;;8.48;7.32;;;19.10;66.70;;;;;;4521953;31;20112;-66
2023/01/01 03:50:08;;;;;;;8.43;6.82;;;19.00;66.60;;;;;;4518999;31;20509;-66
2023/01/01 03:52:52;;;;;;;9.13;7.70;;;19.00;66.60;;;;;;4520056;31;20422;-66
2023/01/01 03:55:35;;;;;;;10.35;7.00;;;19.00;66.60;;;;;;4518914;31;20052;-66
2023/01/01 03:58:30;;;;;;;10.02;7.55;;;19.00;66.60;;;;;;4519491;31;20555;-66
2023/01/01 04:01:15;;;;;;;;;;;19.00;66.60;;;;;;4522116;31;20084;-66
2023/01/01 04:03:41;;;;;;;12.18;7.70;;;19.00;66.60;;;;;;4522270;31;20530;-66
2023/01/01 04:06:10;;;;;;;8.38;7.57;;;18.90;66.50;;;;;;4519100;31;20226;-66
2023/01/01 04:08:36;;;;;;;10.50;7.78;;;18.90;66.60;;;;;;4520847;31;20080;-66
2023/01/01 04:12:00;;;;;;;9.05;7.50;;;19.00;66.60;;;;;;4519832;31;20213;-66
2023/01/01 04:13:56;;;;;;;10.23;7.65;;;18.90;66.50;;;;;;4520761;31;20080;-66
2023/01/01 04:16:23;;;;;;;9.77;7.00;;;18.90;66.60;;;;;;4507298;31;20096;-66
2023/01/01 04:18:49;;;;;;;9.20;7.00;;;18.90;66.50;;;;;;4520449;31;20537;-67
2023/01/01 04:21:15;;;;;;;9.68;7.60;;;18.90;66.50;;;;;;4519736;31;20056;-66
2023/01/01 04:23:40;;;;;;;9.52;7.30;;;18.90;66.50;;;;;;4506652;31;20276;-66
2023/01/01 04:26:12;;;;;;;8.82;6.90;;;18.90;66.40;;;;;;4522376;31;20090;-66
2023/01/01 04:28:40;;;;;;;11.65;7.05;;;18.90;66.50;;;;;;4520770;31;20082;-66
2023/01/01 04:31:06;;;;;;;9.88;7.03;;;18.90;66.50;;;;;;4522299;31;20068;-66
2023/01/01 04:33:32;;;;;;;10.18;7.25;;;18.90;66.50;;;;;;4519538;31;20198;-65
2023/01/01 04:36:06;;;;;;;11.73;7.25;;;18.90;66.40;;;;;;4520926;31;20375;-66
2023/01/01 04:38:33;;;;;;;9.40;7.13;;;18.90;66.40;;;;;;4518889;31;20089;-66
2023/01/01 04:41:00;;;;;;;11.23;6.80;;;18.90;66.40;;;;;;4521107;31;20537;-66
2023/01/01 04:43:27;;;;;;;9.23;6.97;;;18.90;66.40;;;;;;4518321;31;20084;-66
2023/01/01 04:48:33;;;;;;;10.48;7.53;;;18.90;66.40;;;;;;4740598;26;20560;-66
2023/01/01 04:51:03;;;;;;;8.68;6.70;;;18.90;66.40;;;;;;4470905;32;20085;-66
2023/01/01 04:53:32;;;;;;;8.70;6.60;;;18.90;66.40;;;;;;4474342;32;20085;-68
2023/01/01 04:56:07;;;;;;;8.88;6.53;;;18.90;66.40;;;;;;4458181;32;20070;-66
2023/01/01 04:58:34;;;;;;;8.07;6.40;;;18.80;66.30;;;;;;4473479;32;20074;-66
2023/01/01 05:01:00;;;;;;;9.95;6.50;;;18.80;66.20;;;;;;4474908;32;20484;-66
2023/01/01 05:03:26;;;;;;;8.85;6.72;;;18.80;66.20;;;;;;4475097;32;20124;-66
2023/01/01 05:06:09;;;;;;;8.45;6.25;;;18.80;66.20;;;;;;4474222;32;20413;-66
2023/01/01 05:08:36;;;;;;;9.38;6.38;;;18.80;66.10;;;;;;4464589;32;20164;-66
2023/01/01 05:11:09;;;;;;;10.52;6.85;;;18.80;66.20;;;;;;4475134;32;20087;-66
2023/01/01 05:13:40;;;;;;;9.57;6.43;;;18.80;66.20;;;;;;4475248;32;20596;-66
2023/01/01 05:16:08;;;;;;;8.23;6.20;;;18.80;66.10;;;;;;4475185;32;20557;-66
2023/01/01 05:18:35;;;;;;;11.98;6.28;;;18.80;66.20;;;;;;4475116;32;20077;-66
2023/01/01 05:21:07;;;;;;;8.60;5.95;;;18.80;66.10;;;;;;4475397;32;20085;-66
2023/01/01 05:23:33;;;;;;;8.82;6.25;;;18.80;66.10;;;;;;4477853;32;20065;-66
2023/01/01 05:25:59;;;;;;;8.50;6.25;;;18.80;66.10;;;;;;4478098;32;20094;-66
2023/01/01 05:28:26;;;;;;;8.10;5.97;;;18.80;66.10;;;;;;4477965;32;20219;-66
2023/01/01 05:30:52;;;;;;;6.82;5.70;;;18.80;66.10;;;;;;4478029;32;20069;-66
2023/01/01 05:33:19;;;;;;;6.55;5.28;;;18.80;66.10;;;;;;4478124;32;20146;-66
2023/01/01 05:35:51;;;;;;;7.85;5.65;;;18.80;66.10;;;;;;4477957;32;20247;-66
2023/01/01 05:38:16;;;;;;;8.35;6.35;;;18.80;66.10;;;;;;4478190;32;20113;-66
2023/01/01 05:40:42;;;;;;;8.15;5.75;;;18.80;66.10;;;;;;4477616;32;20419;-66
2023/01/01 05:43:08;;;;;;;9.43;5.78;;;18.80;66.10;;;;;;4472146;32;20159;-66
2023/01/01 05:45:34;;;;;;;7.07;5.80;;;18.80;66.10;;;;;;4477391;32;20203;-66
2023/01/01 05:48:03;;;;;;;8.30;5.50;;;18.70;66.10;;;;;;4478045;32;20090;-66
2023/01/01 05:50:29;;;;;;;8.68;5.75;;;18.70;66.00;;;;;;4477312;32;20150;-66
2023/01/01 05:52:55;;;;;;;9.50;5.78;;;18.70;66.00;;;;;;4477742;32;20152;-66
2023/01/01 05:55:21;;;;;;;8.93;5.43;;;18.70;66.00;;;;;;4477734;32;20084;-66
2023/01/01 05:57:47;;;;;;;8.48;5.63;;;18.70;66.00;;;;;;4477483;32;20541;-66
2023/01/01 06:00:13;;;;;;;7.53;5.13;;;18.70;66.00;;;;;;4477710;32;20077;-66
2023/01/01 06:02:39;;;;;;;8.70;5.28;;;18.70;66.00;;;;;;4450481;32;20069;-66
2023/01/01 06:05:15;;;;;;;8.48;5.10;;;18.70;66.00;;;;;;4485400;31;20185;-66
2023/01/01 06:07:44;;;;;;;7.22;5.25;;;18.70;66.00;;;;;;4480264;31;20163;-66
2023/01/01 06:10:10;;;;;;;7.50;5.15;;;18.70;66.00;;;;;;4477569;32;20074;-66
2023/01/01 06:12:36;;;;;;;8.63;5.00;;;18.70;66.00;;;;;;4477463;32;20522;-66
2023/01/01 06:15:08;;;;;;;7.20;5.28;;;18.70;66.00;;;;;;4477107;32;20118;-68
2023/01/01 06:17:34;;;;;;;7.15;4.88;;;18.70;66.00;;;;;;4477419;32;20422;-66
2023/01/01 06:20:01;;;;;;;7.13;5.05;;;18.70;66.00;;;;;;4477152;32;20221;-66
2023/01/01 06:22:27;;;;;;;7.30;4.85;;;18.70;66.00;;;;;;4477370;32;20571;-66
2023/01/01 06:24:53;;;;;;;5.82;4.68;;;18.70;66.00;;;;;;4477183;32;20085;-66
2023/01/01 06:27:19;;;;;;;7.40;4.63;;;18.70;66.00;;;;;;4477371;32;20071;-66
2023/01/01 06:29:44;;;;;;;7.35;5.07;;;18.60;65.90;;;;;;4477043;32;20538;-66
2023/01/01 06:32:10;;;;;;;6.85;4.80;;;18.60;65.90;;;;;;4477155;32;20554;-66
2023/01/01 06:34:40;;;;;;;7.70;4.85;;;18.60;65.90;;;;;;4476533;32;20096;-66
2023/01/01 06:37:05;;;;;;;7.28;4.88;;;18.60;65.90;;;;;;4476771;32;20238;-66
2023/01/01 06:39:31;;;;;;;8.50;4.72;;;18.60;65.90;;;;;;4460320;32;20427;-66
2023/01/01 06:41:57;;;;;;;6.95;4.57;;;18.60;65.80;;;;;;4471290;32;20131;-66
2023/01/01 06:44:23;;;;;;;6.53;4.60;;;18.60;65.90;;;;;;4476486;32;20498;-67
2023/01/01 06:46:48;;;;;;;7.60;5.10;;;18.60;65.90;;;;;;4477105;32;20074;-66
2023/01/01 06:49:14;;;;;;;8.27;4.57;;;18.60;65.80;;;;;;4476553;32;20235;-66
2023/01/01 06:51:42;;;;;;;7.45;4.65;;;18.60;65.80;;;;;;4460326;32;20282;-66
2023/01/01 06:54:09;;;;;;;8.30;4.47;;;18.60;65.80;;;;;;4472689;32;20144;-66
2023/01/01 06:56:35;;;;;;;7.53;4.50;;;18.60;65.80;;;;;;4477006;32;20139;-66
2023/01/01 06:59:10;;;;;;;6.88;4.38;;;18.60;65.80;;;;;;4476714;32;20532;-66
2023/01/01 07:01:38;;;;;;;6.40;4.20;;;18.60;65.80;;;;;;4462722;32;20069;-67
2023/01/01 07:04:09;;;;;;;5.97;4.18;;;18.60;65.80;;;;;;4476853;32;20065;-66
2023/01/01 07:06:35;;;;;;;6.55;4.05;;;18.60;65.80;;;;;;4476587;32;20491;-66
2023/01/01 07:09:02;;;;;;;6.70;4.13;;;18.60;65.80;;;;;;4476778;32;20227;-66
2023/01/01 07:11:28;;;;;;;6.22;3.90;;;18.60;65.80;;;;;;4476479;32;20132;-66
2023/01/01 07:13:54;;;;;;;6.50;4.07;;;18.60;65.80;;;;;;4476732;32;20566;-66
2023/01/01 07:16:21;;;;;;;5.95;3.97;;;18.60;65.80;;;;;;4475962;32;20065;-66
2023/01/01 07:18:49;;;;;;;7.43;4.18;;;18.60;65.80;;;;;;4476600;32;20105;-66
2023/01/01 07:21:28;;;;;;;7.65;4.22;;;18.50;65.80;;;;;;4465397;32;20086;-66
2023/01/01 07:23:55;;;;;;;7.10;4.03;;;18.50;65.70;;;;;;4462328;32;20116;-66
2023/01/01 07:26:23;;;;;;;5.85;3.53;;;18.50;65.70;;;;;;4476439;32;20066;-66
2023/01/01 07:28:49;;;;;;;5.90;3.90;;;18.50;65.70;;;;;;4476348;32;20251;-66
2023/01/01 07:31:15;;;;;;;7.55;3.65;;;18.50;65.70;;;;;;4466210;32;20078;-66
2023/01/01 07:33:41;;;;;;;5.07;3.53;;;18.50;65.70;;;;;;4475464;32;20058;-66
2023/01/01 07:36:07;;;;;;;4.60;3.30;;;18.50;65.70;;;;;;4476470;32;20485;-66
2023/01/01 07:38:33;;;;;;;4.65;3.45;;;18.50;65.80;;;;;;4476021;32;20082;-66
2023/01/01 07:40:59;;;;;;;5.15;3.25;;;18.50;65.80;;;;;;4476347;32;20065;-66
2023/01/01 07:43:25;;;;;;;6.93;4.07;;;18.40;65.70;;;;;;4475877;32;20235;-66
2023/01/01 07:45:51;;;;;;;5.97;3.35;;;18.50;65.70;;;;;;4475070;32;20127;-66
2023/01/01 07:48:17;;;;;;;6.90;3.42;;;18.50;65.70;;;;;;4476087;32;20074;-66
2023/01/01 07:50:43;;;;;;;6.72;3.30;;;18.50;65.70;;;;;;4475510;32;20383;-66
2023/01/01 07:53:09;;;;;;;6.65;3.80;;;18.40;65.60;;;;;;4476151;32;20215;-66
2023/01/01 07:55:35;;;;;;;6.32;3.58;;;18.40;65.60;;;;;;4475921;32;20498;-66
2023/01/01 07:58:01;;;;;;;4.65;3.00;;;18.40;65.70;;;;;;4475956;32;20100;-66
2023/01/01 08:00:28;;;;;;;5.35;3.17;;;18.40;65.60;;;;;;4475746;32;20069;-66
2023/01/01 08:02:54;;;;;;;5.47;3.33;;;18.40;65.60;;;;;;4476136;32;20428;-66
2023/01/01 08:05:20;;;;;;;5.95;3.15;;;18.40;65.60;;;;;;4475986;32;20124;-65
2023/01/01 08:07:47;;;;;;;6.30;3.58;;;18.40;65.60;;;;;;4486748;31;20219;-66
2023/01/01 08:10:14;;;;;;;6.60;3.50;;;18.40;65.60;;;;;;4475908;32;20117;-66
2023/01/01 08:12:41;;;;;;;5.40;3.13;;;18.40;65.70;;;;;;4475431;32;20526;-66
2023/01/01 08:15:08;;;;;;;5.22;3.40;;;18.40;65.60;;;;;;4475643;32;20117;-66
2023/01/01 08:17:34;;;;;;;5.63;3.17;;;18.40;65.70;;;;;;4475767;32;20235;-66
2023/01/01 08:20:00;;;;;;;5.53;3.30;;;18.40;65.60;;;;;;4472200;32;20074;-66
2023/01/01 08:22:26;;;;;;;5.40;3.30;;;18.40;65.70;;;;;;4468469;32;20113;-66
2023/01/01 08:24:52;;;;;;;6.18;3.10;;;18.40;65.60;;;;;;4475543;32;20488;-66
2023/01/01 08:27:18;;;;;;;5.45;2.90;;;18.40;65.60;;;;;;4475714;32;20183;-66
2023/01/01 08:29:46;;;;;;;5.45;2.80;;;18.40;65.60;;;;;;4475400;32;20322;-66
2023/01/01 08:32:13;;;;;;;4.13;2.63;;;18.40;66.50;;;;;;4481036;32;20089;-62
2023/01/01 08:34:39;;;;;;;7.00;3.55;;;18.40;65.60;;;;;;4467100;32;20218;-66
2023/01/01 08:37:10;;;;;;;6.18;3.10;;;18.40;65.60;;;;;;4475503;32;20132;-66
2023/01/01 08:39:38;;;;;;;6.88;2.92;;;18.30;65.60;;;;;;4475606;32;20084;-66
2023/01/01 08:42:03;;;;;;;5.63;2.95;;;18.30;65.70;;;;;;4475412;32;20073;-66
2023/01/01 08:44:29;;;;;;;7.85;3.28;;;18.40;65.80;;;;;;4475664;32;20139;-66
2023/01/01 08:46:55;;;;;;;7.05;3.00;;;18.40;65.90;;;;;;4475199;32;20081;-66
2023/01/01 08:49:26;;;;;;;7.50;3.08;;;18.40;66.20;;;;;;4475018;32;20093;-66
2023/01/01 08:51:52;;;;;;;5.68;3.17;;;18.50;66.30;;;;;;4475498;32;20061;-66
2023/01/01 08:54:17;;;;;;;8.40;3.05;;;18.60;66.20;;;;;;4480935;32;20132;-66
2023/01/01 08:56:44;;;;;;;5.07;3.00;;;18.60;66.00;;;;;;4482292;32;20069;-66
2023/01/01 08:59:10;;;;;;;5.03;2.72;;;18.80;65.70;;;;;;4478406;32;20176;-67
2023/01/01 09:01:36;;;;;;;4.75;2.72;;;18.90;65.30;;;;;;4478634;32;20110;-66
2023/01/01 09:04:11;;;;;;;7.60;2.80;;;19.10;65.00;;;;;;4478327;32;20525;-66
2023/01/01 09:06:37;;;;;;;5.63;2.67;;;19.20;65.50;;;;;;4478575;32;20113;-66
2023/01/01 09:09:03;;;;;;;4.20;2.28;;;19.30;64.50;;;;;;4464162;32;20075;-66
2023/01/01 09:11:33;;;;;;;3.42;1.88;;;19.40;64.20;;;;;;4478624;32;20210;-67
2023/01/01 09:13:59;;;;;;;6.32;2.50;;;19.40;64.00;;;;;;4478315;32;20227;-67
2023/01/01 09:16:25;;;;;;;4.63;2.33;;;19.50;63.90;;;;;;4477759;32;20250;-67
2023/01/01 09:18:51;;;;;;;5.00;2.30;;;19.50;63.80;;;;;;4478236;32;20587;-67
2023/01/01 09:21:17;;;;;;;4.75;2.40;;;19.50;63.90;;;;;;4478222;32;20124;-67
2023/01/01 09:23:43;;;;;;;3.85;1.88;;;19.50;63.80;;;;;;4478135;32;20519;-67
2023/01/01 09:26:11;;;;;;;7.88;2.70;;;19.60;63.90;;;;;;4478273;32;20085;-68
2023/01/01 09:28:38;;;;;;;6.57;2.65;;;19.60;63.80;;;;;;4477820;32;20254;-67
2023/01/01 09:31:07;;;;;;;6.05;2.25;;;19.60;63.90;;;;;;4475467;32;20595;-67
2023/01/01 09:33:35;;;;;;;5.85;2.28;;;19.60;64.00;;;;;;4474102;32;20411;-67
2023/01/01 09:36:15;;;;;;;4.30;2.58;;;19.60;64.00;;;;;;4475919;32;20513;-67
2023/01/01 09:38:41;;;;;;;5.93;2.13;;;19.60;64.10;;;;;;4462920;32;20211;-67
2023/01/01 09:41:27;;;;;;;4.97;2.33;;;19.60;64.00;;;;;;4476689;32;20108;-67
2023/01/01 09:44:12;;;;;;;4.47;2.30;;;19.60;64.10;;;;;;4476599;32;20134;-67
2023/01/01 09:46:38;;;;;;;5.07;2.20;;;19.60;64.10;;;;;;4476936;32;20501;-67
2023/01/01 09:49:37;;;;;;;6.57;2.45;;;19.60;64.20;;;;;;4473110;32;20081;-67
2023/01/01 09:52:04;;;;;;;4.85;2.47;;;19.60;64.20;;;;;;4471269;32;20258;-67
2023/01/01 09:54:38;;;;;;;4.40;2.25;;;19.60;64.30;;;;;;4465871;32;20070;-67
2023/01/01 09:57:09;;;;;;;7.88;2.75;;;19.60;64.40;;;;;;4476366;32;20530;-67
2023/01/01 09:59:35;;;;;;;6.53;2.08;;;19.50;64.40;;;;;;4470909;32;20082;-67
2023/01/01 10:02:19;;;;;;;9.38;2.60;;;19.50;64.50;;;;;;4468968;32;20085;-68
2023/01/01 10:05:26;;;;;;;7.32;2.58;;;19.50;64.30;;;;;;4475401;32;20167;-67
2023/01/01 10:08:14;;;;;;;9.18;2.58;;;19.40;64.40;;;;;;4453650;32;20066;-67
2023/01/01 10:10:56;;;;;;;8.60;2.75;;;19.40;64.50;;;;;;4476015;32;20524;-67
2023/01/01 10:13:33;;;;;;;9.73;2.85;;;19.40;64.60;;;;;;4470132;32;20080;-67
2023/01/01 10:16:09;;;;;;;6.30;2.75;;;19.40;64.70;;;;;;4477079;32;20088;-68
2023/01/01 10:18:37;;;;;;;8.30;2.80;;;19.30;64.70;;;;;;4467250;32;20078;-68
2023/01/01 10:21:31;;;;;;;8.20;2.72;;;19.30;64.60;;;;;;4477466;32;20092;-68
2023/01/01 10:24:00;;;;;;;7.25;2.70;;;19.40;64.60;;;;;;4476996;32;20560;-68
2023/01/01 10:26:28;;;;;;;6.55;2.50;;;19.40;64.50;;;;;;4477237;32;20073;-68
2023/01/01 10:29:09;;;;;;;6.55;2.58;;;19.40;64.40;;;;;;4477355;32;20430;-67
2023/01/01 10:31:40;;;;;;;7.70;2.60;;;19.40;64.30;;;;;;4477210;32;20078;-67
2023/01/01 10:34:31;;;;;;;7.60;2.45;;;19.50;64.30;;;;;;4477193;32;20085;-67
2023/01/01 10:36:59;;;;;;;7.63;2.50;;;19.50;64.30;;;;;;4475339;32;20100;-67
2023/01/01 10:39:26;;;;;;;6.38;2.53;;;19.50;64.20;;;;;;4475541;32;20124;-68
2023/01/01 10:41:51;;;;;;;6.60;2.35;;;19.50;64.20;;;;;;4474407;32;20078;-68
2023/01/01 10:44:31;;;;;;;6.55;2.58;;;19.50;64.20;;;;;;4476479;32;20259;-70
2023/01/01 10:46:58;;;;;;;8.32;2.45;;;19.50;64.30;;;;;;4475092;32;20113;-68
2023/01/01 10:49:24;;;;;;;6.63;2.33;;;19.50;64.20;;;;;;4476167;32;20077;-68
2023/01/01 10:51:53;;;;;;;6.57;2.38;;;19.50;64.20;;;;;;4465200;32;20632;-67
2023/01/01 10:54:22;;;;;;;6.25;2.08;;;19.50;64.40;;;;;;4461518;32;20283;-67
2023/01/01 10:56:48;;;;;;;5.82;1.98;;;19.50;64.40;;;;;;4461389;32;20105;-67
2023/01/01 10:59:37;;;;;;;6.43;2.00;;;19.60;64.50;;;;;;4461329;32;20167;-67
2023/01/01 11:02:18;;;;;;;7.63;1.98;;;19.50;64.50;;;;;;4460887;32;20094;-68
2023/01/01 11:04:45;;;;;;;6.43;2.17;;;19.50;64.70;;;;;;4462227;32;20074;-67
2023/01/01 11:07:25;;;;;;;10.82;2.60;;;19.50;65.60;;;;;;4474061;32;20163;-67
2023/01/01 11:09:53;;;;;;;7.70;2.53;;;19.50;65.00;;;;;;4474039;32;20091;-67
2023/01/01 11:12:24;;;;;;;8.95;2.88;;;19.50;65.20;;;;;;4475117;32;20261;-67
2023/01/01 11:14:52;;;;;;;4.57;2.30;;;19.50;65.20;;;;;;4476059;32;20532;-67
2023/01/01 11:17:24;;;;;;;4.53;1.98;;;19.50;65.10;;;;;;4476380;32;20087;-67
2023/01/01 11:19:51;;;;;;;6.80;2.30;;;19.50;65.10;;;;;;4476198;32;20085;-67
2023/01/01 11:22:50;;;;;;;8.50;2.30;;;19.60;65.20;;;;;;4476096;32;20110;-71
2023/01/01 11:25:16;;;;;;;4.32;2.03;;;19.60;65.20;;;;;;4471474;32;20159;-68
2023/01/01 11:27:42;;;;;;;6.95;2.60;;;19.60;65.20;;;;;;4473861;32;20077;-67
2023/01/01 11:30:26;;;;;;;5.30;2.05;;;19.60;65.20;;;;;;4472180;32;20074;-67
2023/01/01 11:32:59;;;;;;;7.00;2.15;;;19.60;65.20;;;;;;4474096;32;20128;-67
2023/01/01 11:35:31;;;;;;;7.22;2.00;;;19.60;65.20;;;;;;4460601;32;20092;-67
2023/01/01 11:37:58;;;;;;;7.90;2.22;;;19.60;66.10;;;;;;4475012;32;20168;-67
2023/01/01 11:40:46;;;;;;;6.43;2.60;;;19.60;65.20;;;;;;4473409;32;20613;-67
2023/01/01 11:43:20;;;;;;;5.32;2.20;;;19.60;65.30;;;;;;4474862;32;20074;-67
2023/01/01 11:45:47;;;;;;;6.00;2.03;;;19.60;65.40;;;;;;4474498;32;20069;-67
2023/01/01 11:48:33;;;;;;;4.90;1.85;;;19.60;65.40;;;;;;4474243;32;20423;-68
2023/01/01 11:51:03;;;;;;;5.25;1.95;;;19.60;65.40;;;;;;4473101;31;20069;-67
2023/01/01 11:53:31;;;;;;;7.00;2.13;;;19.60;65.40;;;;;;4474078;32;20175;-68
2023/01/01 11:56:08;;;;;;;7.97;2.10;;;19.60;65.40;;;;;;4474057;32;20093;-66
2023/01/01 11:58:55;;;;;;;4.80;1.92;;;19.60;65.40;;;;;;4475020;32;20069;-67
2023/01/01 12:01:26;;;;;;;5.55;2.33;;;19.60;65.40;;;;;;4474934;32;20073;-67
2023/01/01 12:04:00;;;;;;;6.07;2.22;;;19.60;65.40;;;;;;4472091;32;20088;-67
2023/01/01 12:06:39;;;;;;;6.03;1.92;;;19.60;65.30;;;;;;4471967;32;20410;-66
2023/01/01 12:09:42;;;;;;;5.57;2.20;;;19.60;65.30;;;;;;4472664;32;20077;-66
2023/01/01 12:12:28;;;;;;;5.50;1.67;;;19.60;65.20;;;;;;4411621;32;20401;-66
2023/01/01 12:14:59;;;;;;;4.57;1.73;;;19.60;65.30;;;;;;4468956;32;20132;-67
2023/01/01 12:17:41;;;;;;;4.88;2.00;;;19.60;65.30;;;;;;4473621;32;20073;-67
2023/01/01 12:20:10;;;;;;;4.68;1.60;;;19.60;65.30;;;;;;4472479;32;20639;-66
2023/01/01 12:22:58;;;;;;;4.45;1.92;;;19.60;65.30;;;;;;4461091;32;20494;-66
2023/01/01 12:25:55;;;;;;;5.53;1.60;;;19.60;65.40;;;;;;4461605;32;20107;-66
2023/01/01 12:28:30;;;;;;;10.57;1.92;;;19.60;65.40;;;;;;4473177;32;20061;-66
2023/01/01 12:30:59;;;;;;;5.88;1.70;;;19.60;65.30;;;;;;4473855;32;20573;-66
2023/01/01 12:34:11;;;;;;;6.50;2.15;;;19.60;65.50;;;;;;4472905;32;20200;-66
2023/01/01 12:37:18;;;;;;;4.38;1.83;;;19.60;65.40;;;;;;4453985;32;20182;-66
2023/01/01 12:39:56;;;;;;;5.15;1.90;;;19.60;65.40;;;;;;4466474;32;20065;-67
2023/01/01 12:42:33;;;;;;;5.88;1.80;;;19.60;65.40;;;;;;4463105;32;20124;-67
2023/01/01 12:45:18;;;;;;;4.10;1.80;;;19.60;65.40;;;;;;4465293;32;20552;-69
2023/01/01 12:47:58;;;;;;;6.25;1.98;;;19.60;65.40;;;;;;4462599;32;20220;-66
2023/01/01 12:50:36;;;;;;;5.72;2.10;;;19.60;65.40;;;;;;4462568;32;20477;-66
2023/01/01 12:53:37;;;;;;;5.78;1.83;;;19.60;65.50;;;;;;4457923;32;20500;-69
2023/01/01 12:56:38;;;;;;;5.88;2.10;;;19.60;65.50;;;;;;4461287;32;20408;-66
2023/01/01 12:59:21;;;;;;;4.32;1.85;;;19.60;65.50;;;;;;4473089;32;20131;-67
2023/01/01 13:01:50;;;;;;;5.40;1.75;;;19.60;65.50;;;;;;4473622;32;20516;-66
2023/01/01 13:04:21;;;;;;;4.38;1.63;;;19.60;65.50;;;;;;4473920;32;20166;-66
2023/01/01 13:07:02;;;;;;;4.47;1.70;;;19.60;65.50;;;;;;4473180;32;20058;-66
2023/01/01 13:09:44;;;;;;;6.25;1.73;;;19.60;65.50;;;;;;4471871;32;20136;-66
2023/01/01 13:12:19;;;;;;;6.53;1.95;;;19.50;65.50;;;;;;4473674;32;20188;-66
2023/01/01 13:14:51;;;;;;;4.82;1.67;;;19.60;65.60;;;;;;4472909;32;20171;-67
2023/01/01 13:17:22;;;;;;;5.88;1.92;;;19.50;65.50;;;;;;4473180;32;20128;-67
2023/01/01 13:19:52;;;;;;;4.45;1.85;;;19.60;65.60;;;;;;4474163;32;20133;-66
2023/01/01 13:22:35;;;;;;;6.65;1.92;;;19.50;65.50;;;;;;4474200;32;20439;-67